Time;durP1;ratioP1;P1;durP2;ratioP2;P2;SDS_P1;SDS_P2;PMS_P1;PMS_P2;Temp;Humidity;BMP_temperature;BMP_pressure;BME280_temperature;BME280_humidity;BME280_pressure;Samples;Min_cycle;Max_cycle;Signal;HPM_P1;HPM_P2
2022/06/17 00:02:11;;;;;;;8.00;5.38;;;16.30;35.60;;;;;;5075022;28;20486;-73
2022/06/17 00:04:37;;;;;;;8.60;5.23;;;16.20;37.30;;;;;;5073904;28;20425;-73
2022/06/17 00:07:14;;;;;;;5.93;4.23;;;16.10;38.00;;;;;;5072333;28;20414;-73
2022/06/17 00:09:40;;;;;;;6.95;5.03;;;16.10;38.20;;;;;;5078329;28;20399;-73
2022/06/17 00:12:11;;;;;;;7.70;4.63;;;16.10;39.30;;;;;;5074566;28;20498;-73
2022/06/17 00:17:22;;;;;;;7.47;5.55;;;15.90;40.30;;;;;;5075901;28;20756;-73
2022/06/17 00:19:48;;;;;;;9.40;4.95;;;15.90;41.00;;;;;;5077780;28;20488;-73
2022/06/17 00:22:14;;;;;;;9.02;5.20;;;16.10;39.70;;;;;;5075128;28;20494;-74
2022/06/17 00:24:40;;;;;;;10.57;5.47;;;16.20;39.50;;;;;;5078333;28;20522;-73
2022/06/17 00:27:09;;;;;;;12.50;7.00;;;16.10;40.00;;;;;;5067819;28;20407;-74
2022/06/17 00:29:35;;;;;;;9.77;5.70;;;16.00;40.80;;;;;;5076828;28;20408;-74
2022/06/17 00:32:00;;;;;;;10.60;6.82;;;15.90;41.80;;;;;;5059167;28;20768;-74
2022/06/17 00:34:26;;;;;;;10.57;6.00;;;15.80;43.10;;;;;;5076466;28;20494;-74
2022/06/17 00:36:59;;;;;;;8.07;5.88;;;15.80;43.80;;;;;;5060872;28;20450;-73
2022/06/17 00:39:29;;;;;;;7.00;5.05;;;15.70;44.80;;;;;;5072281;28;20779;-73
2022/06/17 00:41:58;;;;;;;9.38;5.40;;;15.90;44.40;;;;;;5076046;28;20459;-75
2022/06/17 00:44:48;;;;;;;6.60;5.80;;;15.90;44.00;;;;;;5072136;28;20494;-73
2022/06/17 00:47:39;;;;;;;8.50;5.95;;;15.90;44.10;;;;;;5072644;28;20399;-73
2022/06/17 00:50:19;;;;;;;10.02;5.68;;;15.90;44.10;;;;;;5073387;28;20410;-74
2022/06/17 00:53:21;;;;;;;7.78;5.20;;;15.90;44.20;;;;;;5075561;28;20404;-74
2022/06/17 00:55:58;;;;;;;7.13;5.60;;;15.80;44.30;;;;;;5070580;28;20501;-74
2022/06/17 00:58:29;;;;;;;7.13;5.90;;;15.80;46.00;;;;;;5075442;28;20416;-74
2022/06/17 01:00:57;;;;;;;9.40;5.97;;;16.00;44.50;;;;;;5073576;28;20400;-74
2022/06/17 01:03:34;;;;;;;8.43;5.82;;;16.30;41.20;;;;;;5061831;28;20423;-74
2022/06/17 01:06:09;;;;;;;6.78;5.75;;;16.10;41.90;;;;;;5072302;28;20406;-74
2022/06/17 01:11:29;;;;;;;6.05;5.28;;;16.20;42.80;;;;;;5072558;28;20765;-74
2022/06/17 01:13:55;;;;;;;9.63;6.00;;;16.20;44.40;;;;;;5073470;28;20487;-75
2022/06/17 01:16:31;;;;;;;9.00;6.00;;;16.00;45.30;;;;;;5074761;28;20421;-75
2022/06/17 01:19:00;;;;;;;10.23;6.67;;;16.10;45.60;;;;;;5078568;28;20457;-74
2022/06/17 01:21:38;;;;;;;8.65;5.70;;;16.20;45.00;;;;;;5072463;28;20408;-75
2022/06/17 01:24:05;;;;;;;9.43;6.20;;;16.30;43.20;;;;;;5074599;28;20452;-75
2022/06/17 01:26:30;;;;;;;8.00;5.60;;;16.20;43.70;;;;;;5079906;28;20904;-73
2022/06/17 01:28:56;;;;;;;8.82;5.43;;;15.90;45.30;;;;;;5080416;28;20458;-73
2022/06/17 01:31:22;;;;;;;9.73;5.97;;;16.10;45.30;;;;;;5078700;28;20391;-74
2022/06/17 01:33:48;;;;;;;8.90;6.20;;;16.00;45.00;;;;;;5080913;28;20402;-74
2022/06/17 01:36:23;;;;;;;11.73;5.70;;;15.90;46.30;;;;;;5078221;28;20407;-74
2022/06/17 01:38:52;;;;;;;9.18;5.35;;;15.80;46.00;;;;;;5054725;28;20744;-74
2022/06/17 01:41:23;;;;;;;7.60;5.40;;;15.60;47.30;;;;;;5076618;28;20402;-74
2022/06/17 01:44:33;;;;;;;10.20;5.90;;;15.50;46.90;;;;;;5074104;28;20886;-74
2022/06/17 01:47:01;;;;;;;8.05;5.50;;;15.70;47.40;;;;;;4947940;28;20948;-74
2022/06/17 01:49:33;;;;;;;10.73;5.50;;;15.70;46.60;;;;;;5059069;28;20407;-74
2022/06/17 01:52:13;;;;;;;7.22;5.28;;;15.80;45.10;;;;;;5081606;28;20736;-75
2022/06/17 01:54:47;;;;;;;7.28;4.90;;;15.80;43.60;;;;;;5083186;28;20441;-75
2022/06/17 01:57:18;;;;;;;7.22;5.18;;;15.80;43.40;;;;;;5076926;28;20539;-75
2022/06/17 01:59:50;;;;;;;5.85;4.50;;;15.90;40.90;;;;;;5081680;28;21080;-75
2022/06/17 02:02:17;;;;;;;7.47;4.53;;;15.90;40.20;;;;;;5078434;28;20410;-75
2022/06/17 02:04:50;;;;;;;8.73;5.10;;;15.80;41.30;;;;;;5078801;28;20490;-75
2022/06/17 02:07:20;;;;;;;5.32;4.80;;;15.70;41.00;;;;;;5078708;28;20407;-73
2022/06/17 02:09:46;;;;;;;8.55;4.70;;;15.70;41.20;;;;;;5081590;28;20948;-74
2022/06/17 02:12:15;;;;;;;7.93;5.18;;;15.80;40.60;;;;;;5057834;28;20407;-74
2022/06/17 02:14:41;;;;;;;8.18;4.97;;;15.70;41.50;;;;;;5073905;28;20403;-74
2022/06/17 02:17:07;;;;;;;9.68;5.40;;;15.60;42.60;;;;;;5074193;28;20399;-74
2022/06/17 02:19:35;;;;;;;7.03;5.50;;;15.60;43.50;;;;;;5077316;28;20963;-74
2022/06/17 02:22:09;;;;;;;6.33;5.00;;;15.90;43.20;;;;;;5071551;28;20487;-74
2022/06/17 02:24:36;;;;;;;7.18;5.50;;;15.90;42.50;;;;;;5078465;28;20799;-74
2022/06/17 02:27:04;;;;;;;6.82;5.60;;;15.90;41.90;;;;;;5074141;28;20890;-74
2022/06/17 02:29:32;;;;;;;11.73;5.30;;;16.10;41.10;;;;;;5058974;28;20400;-74
2022/06/17 02:32:00;;;;;;;8.65;5.55;;;16.00;41.20;;;;;;5076481;28;20390;-74
2022/06/17 02:34:27;;;;;;;10.85;5.90;;;15.90;41.30;;;;;;5074772;28;20402;-73
2022/06/17 02:37:01;;;;;;;6.90;5.50;;;15.60;42.20;;;;;;5075079;28;20429;-73
2022/06/17 02:39:27;;;;;;;8.73;5.68;;;15.50;42.30;;;;;;5071056;28;20457;-74
2022/06/17 02:41:54;;;;;;;10.05;5.38;;;15.40;44.50;;;;;;5076418;28;20405;-74
2022/06/17 02:44:23;;;;;;;8.93;5.28;;;15.30;43.40;;;;;;5060551;28;20400;-73
2022/06/17 02:46:53;;;;;;;9.70;5.50;;;15.20;44.20;;;;;;5068315;28;20414;-73
2022/06/17 02:49:25;;;;;;;7.78;5.97;;;15.40;43.70;;;;;;5076454;28;20418;-74
2022/06/17 02:51:51;;;;;;;10.32;6.00;;;15.30;44.80;;;;;;5072091;28;20552;-74
2022/06/17 02:54:25;;;;;;;12.25;7.20;;;15.30;44.90;;;;;;5077527;28;20437;-74
2022/06/17 02:56:53;;;;;;;7.30;5.60;;;15.20;45.00;;;;;;5059891;28;20411;-74
2022/06/17 02:59:31;;;;;;;7.90;6.00;;;15.30;44.90;;;;;;5076278;28;20450;-73
2022/06/17 03:02:00;;;;;;;12.52;7.30;;;15.20;45.50;;;;;;5075140;28;20405;-74
2022/06/17 03:04:29;;;;;;;6.90;5.55;;;15.20;46.00;;;;;;5057714;28;20746;-74
2022/06/17 03:06:54;;;;;;;13.93;7.25;;;15.10;46.90;;;;;;5079445;28;20534;-74
2022/06/17 03:09:32;;;;;;;9.15;6.03;;;15.00;48.60;;;;;;5073895;28;20928;-74
2022/06/17 03:12:09;;;;;;;10.75;7.28;;;15.00;50.00;;;;;;5070504;28;20396;-73
2022/06/17 03:14:45;;;;;;;10.27;7.50;;;14.90;51.20;;;;;;5073569;28;20399;-73
2022/06/17 03:17:14;;;;;;;9.60;6.70;;;14.80;51.60;;;;;;5076982;28;20446;-73
2022/06/17 03:19:40;;;;;;;9.80;6.90;;;14.80;52.10;;;;;;5073954;28;20784;-74
2022/06/17 03:22:10;;;;;;;10.85;7.25;;;14.80;53.10;;;;;;5072813;28;20403;-75
2022/06/17 03:24:48;;;;;;;10.48;6.95;;;14.90;54.10;;;;;;5075629;28;20404;-75
2022/06/17 03:27:19;;;;;;;11.20;6.63;;;15.00;52.60;;;;;;5074562;28;20415;-74
2022/06/17 03:29:47;;;;;;;10.60;6.28;;;15.00;51.80;;;;;;5064517;28;20977;-75
2022/06/17 03:32:27;;;;;;;11.00;6.95;;;15.00;51.80;;;;;;5068543;28;20399;-75
2022/06/17 03:34:55;;;;;;;11.45;7.57;;;14.90;52.10;;;;;;5074072;28;20754;-74
2022/06/17 03:37:45;;;;;;;9.68;7.15;;;14.80;52.40;;;;;;5071423;28;20411;-76
2022/06/17 03:40:23;;;;;;;11.38;7.50;;;14.80;53.00;;;;;;5070654;28;20391;-74
2022/06/17 03:43:11;;;;;;;12.80;7.23;;;14.80;53.50;;;;;;5072491;28;20428;-72
2022/06/17 03:45:47;;;;;;;9.38;6.90;;;14.80;54.00;;;;;;5076064;28;20886;-73
2022/06/17 03:48:33;;;;;;;10.95;7.22;;;14.90;54.10;;;;;;5076348;28;20412;-73
2022/06/17 03:50:58;;;;;;;11.00;7.60;;;14.80;54.40;;;;;;5073896;28;20414;-72
2022/06/17 03:53:31;;;;;;;11.50;6.80;;;14.90;54.50;;;;;;5072486;28;20437;-72
2022/06/17 03:56:03;;;;;;;8.82;6.93;;;14.80;54.60;;;;;;5057434;28;20398;-73
2022/06/17 03:58:29;;;;;;;12.20;7.20;;;14.90;54.70;;;;;;5072613;28;20490;-72
2022/06/17 04:01:11;;;;;;;10.87;7.20;;;14.90;54.80;;;;;;5077658;28;20555;-73
2022/06/17 04:03:39;;;;;;;8.55;6.25;;;14.90;54.20;;;;;;5076309;28;20427;-73
2022/06/17 04:06:15;;;;;;;8.75;6.70;;;15.00;53.60;;;;;;5059427;28;20408;-74
2022/06/17 04:09:03;;;;;;;8.10;6.60;;;15.00;52.70;;;;;;5078631;28;20406;-73
2022/06/17 04:11:34;;;;;;;6.90;5.70;;;15.00;51.70;;;;;;5057914;28;20396;-74
2022/06/17 04:14:04;;;;;;;9.57;6.03;;;15.00;52.20;;;;;;5078363;28;20818;-72
2022/06/17 04:16:53;;;;;;;15.00;7.00;;;15.10;50.20;;;;;;5075860;28;20490;-74
2022/06/17 04:19:24;;;;;;;12.48;6.00;;;15.20;49.60;;;;;;5076375;28;20892;-73
2022/06/17 04:21:51;;;;;;;9.15;6.13;;;15.20;48.60;;;;;;5071552;28;20398;-72
2022/06/17 04:24:24;;;;;;;15.13;6.40;;;15.20;48.00;;;;;;5074293;28;20410;-72
2022/06/17 04:26:59;;;;;;;8.98;6.28;;;15.30;47.00;;;;;;5072281;28;20893;-73
2022/06/17 04:29:38;;;;;;;10.63;6.00;;;15.40;47.20;;;;;;5076404;28;20406;-73
2022/06/17 04:32:30;;;;;;;10.77;5.53;;;15.40;46.80;;;;;;5075138;28;20402;-72
2022/06/17 04:34:56;;;;;;;10.20;6.15;;;15.50;45.90;;;;;;5059257;28;20872;-72
2022/06/17 04:37:23;;;;;;;10.27;6.20;;;15.60;45.30;;;;;;5075581;28;20407;-73
2022/06/17 04:39:52;;;;;;;8.52;5.40;;;15.70;44.80;;;;;;5078913;28;20393;-72
2022/06/17 04:42:27;;;;;;;8.48;5.82;;;15.80;43.50;;;;;;5072099;28;20640;-73
2022/06/17 04:44:53;;;;;;;11.45;6.50;;;15.90;42.90;;;;;;5076257;28;20951;-74
2022/06/17 04:47:20;;;;;;;12.00;6.63;;;16.00;42.10;;;;;;5071652;28;20415;-71
2022/06/17 04:50:10;;;;;;;9.18;6.25;;;16.10;41.50;;;;;;5058574;28;20397;-74
2022/06/17 04:52:42;;;;;;;11.40;6.15;;;16.20;40.60;;;;;;5075297;28;20402;-73
2022/06/17 04:55:23;;;;;;;7.90;5.40;;;16.40;40.60;;;;;;5082277;28;20415;-71
2022/06/17 04:57:49;;;;;;;7.72;5.60;;;16.50;38.90;;;;;;5076635;28;20440;-73
2022/06/17 05:00:21;;;;;;;7.75;5.30;;;16.60;37.90;;;;;;5081799;28;20468;-73
2022/06/17 05:02:46;;;;;;;16.05;6.60;;;16.70;37.30;;;;;;5078492;28;20496;-72
2022/06/17 05:05:19;;;;;;;12.47;6.53;;;16.80;37.30;;;;;;5079046;28;20490;-74
2022/06/17 05:07:48;;;;;;;10.95;6.25;;;17.00;36.90;;;;;;5085050;28;20874;-73
2022/06/17 05:10:21;;;;;;;12.27;5.57;;;17.00;36.00;;;;;;5082330;28;20395;-73
2022/06/17 05:12:52;;;;;;;9.53;5.60;;;17.20;35.20;;;;;;5078556;28;20385;-71
2022/06/17 05:15:20;;;;;;;8.65;5.80;;;17.30;34.00;;;;;;5081743;28;20419;-73
2022/06/17 05:17:47;;;;;;;7.78;5.30;;;17.30;34.10;;;;;;5081446;28;20739;-73
2022/06/17 05:20:16;;;;;;;9.60;5.80;;;17.40;33.80;;;;;;5078733;28;20399;-74
2022/06/17 05:22:47;;;;;;;17.40;7.03;;;17.40;34.00;;;;;;5081781;28;20405;-74
2022/06/17 05:25:22;;;;;;;16.57;6.57;;;17.50;34.00;;;;;;5082898;28;20737;-72
2022/06/17 05:27:48;;;;;;;11.55;6.10;;;17.60;33.00;;;;;;5083325;28;20420;-71
2022/06/17 05:30:14;;;;;;;12.20;6.70;;;17.70;33.10;;;;;;5077824;28;20399;-74
2022/06/17 05:32:42;;;;;;;11.43;6.80;;;17.90;32.50;;;;;;5084596;28;20403;-74
2022/06/17 05:35:08;;;;;;;11.10;6.75;;;18.00;31.70;;;;;;5081239;28;20544;-74
2022/06/17 05:37:34;;;;;;;10.77;7.47;;;18.20;30.60;;;;;;5086196;22;20481;-80
2022/06/17 05:39:59;;;;;;;12.02;6.22;;;18.30;30.40;;;;;;5068018;28;20843;-78
2022/06/17 05:42:27;;;;;;;10.77;6.07;;;18.60;30.00;;;;;;5066900;28;20401;-78
2022/06/17 05:44:53;;;;;;;11.85;5.40;;;18.80;28.40;;;;;;5069961;28;20423;-78
2022/06/17 05:47:18;;;;;;;9.18;5.78;;;19.10;27.30;;;;;;5064459;28;20490;-78
2022/06/17 05:49:44;;;;;;;10.80;5.60;;;19.40;26.60;;;;;;5067683;28;20399;-80
2022/06/17 05:52:11;;;;;;;7.00;4.47;;;19.60;25.70;;;;;;5049418;28;20903;-76
2022/06/17 05:54:36;;;;;;;10.38;5.10;;;19.80;24.20;;;;;;5063329;28;20397;-75
2022/06/17 05:57:02;;;;;;;6.43;4.60;;;19.90;23.60;;;;;;5064473;28;20404;-77
2022/06/17 05:59:28;;;;;;;9.23;5.05;;;19.90;23.10;;;;;;5065589;28;20401;-77
2022/06/17 06:01:53;;;;;;;8.27;5.27;;;19.90;23.10;;;;;;5062636;28;20759;-77
2022/06/17 06:04:19;;;;;;;6.03;4.60;;;19.80;23.50;;;;;;5059484;28;20408;-77
2022/06/17 06:06:45;;;;;;;8.50;4.60;;;19.70;23.90;;;;;;5063545;28;20441;-76
2022/06/17 06:09:10;;;;;;;10.97;5.00;;;19.70;24.30;;;;;;5059299;28;20407;-77
2022/06/17 06:11:36;;;;;;;10.47;4.47;;;19.60;24.80;;;;;;5059761;28;20428;-77
2022/06/17 06:14:02;;;;;;;7.30;4.85;;;19.70;24.60;;;;;;5059782;28;20971;-77
2022/06/17 06:16:27;;;;;;;9.60;4.90;;;19.70;24.90;;;;;;5062660;28;20405;-76
2022/06/17 06:18:53;;;;;;;6.53;4.70;;;19.80;25.20;;;;;;5065142;28;20407;-77
2022/06/17 06:21:19;;;;;;;8.00;5.07;;;19.70;25.40;;;;;;5064360;28;20452;-76
2022/06/17 06:23:45;;;;;;;10.73;5.10;;;19.70;26.00;;;;;;5051304;28;20414;-78
2022/06/17 06:26:14;;;;;;;7.88;4.18;;;19.80;25.10;;;;;;5046579;28;20419;-78
2022/06/17 06:28:40;;;;;;;8.68;4.30;;;19.70;25.20;;;;;;5050551;28;21224;-77
2022/06/17 06:31:23;;;;;;;7.13;4.28;;;19.60;25.40;;;;;;5054341;28;20411;-75
2022/06/17 06:33:49;;;;;;;6.95;4.50;;;19.60;25.60;;;;;;5073115;28;20391;-77
2022/06/17 06:36:14;;;;;;;7.93;4.70;;;19.40;25.80;;;;;;5041477;28;20486;-76
2022/06/17 06:38:40;;;;;;;7.68;4.40;;;19.30;26.90;;;;;;5067263;28;20394;-78
2022/06/17 06:41:05;;;;;;;7.43;4.80;;;19.20;27.20;;;;;;5045735;28;20415;-77
2022/06/17 06:43:31;;;;;;;8.37;4.00;;;19.30;26.60;;;;;;5058385;28;20516;-76
2022/06/17 06:45:57;;;;;;;7.28;4.40;;;19.40;26.80;;;;;;5063203;28;20482;-78
2022/06/17 06:48:25;;;;;;;6.72;4.60;;;19.60;26.00;;;;;;5065053;28;20891;-77
2022/06/17 06:50:51;;;;;;;7.20;4.65;;;19.70;25.40;;;;;;5057800;28;20403;-77
2022/06/17 06:53:17;;;;;;;8.30;4.90;;;19.80;25.00;;;;;;5060742;28;20457;-76
2022/06/17 06:55:42;;;;;;;6.05;4.53;;;19.90;24.30;;;;;;5067225;28;20461;-77
2022/06/17 06:58:16;;;;;;;8.23;4.10;;;19.90;24.40;;;;;;5045114;28;20415;-77
2022/06/17 07:00:46;;;;;;;10.57;4.60;;;20.00;24.40;;;;;;5042463;28;20414;-77
2022/06/17 07:03:13;;;;;;;8.20;4.10;;;20.10;24.20;;;;;;5033271;28;20438;-77
2022/06/17 07:05:42;;;;;;;8.43;4.40;;;20.20;23.60;;;;;;5061674;28;20508;-77
2022/06/17 07:08:11;;;;;;;6.80;4.18;;;20.30;23.40;;;;;;5045535;28;22037;-78
2022/06/17 07:10:37;;;;;;;8.77;4.00;;;20.40;23.00;;;;;;5062169;28;20439;-77
2022/06/17 07:13:03;;;;;;;8.52;4.65;;;20.60;23.30;;;;;;5062979;28;20494;-75
2022/06/17 07:15:30;;;;;;;7.93;4.32;;;20.70;22.70;;;;;;5069465;28;20425;-77
2022/06/17 07:18:03;;;;;;;6.68;3.92;;;21.00;21.40;;;;;;5044897;28;20397;-78
2022/06/17 07:20:36;;;;;;;7.50;4.45;;;21.20;20.90;;;;;;5037867;28;20390;-77
2022/06/17 07:23:08;;;;;;;6.60;3.90;;;21.40;20.20;;;;;;5048607;28;20868;-76
2022/06/17 07:25:34;;;;;;;6.10;3.78;;;21.70;19.10;;;;;;5079085;28;20871;-77
2022/06/17 07:28:00;;;;;;;8.90;3.80;;;21.90;19.00;;;;;;5061819;28;20384;-77
2022/06/17 07:30:27;;;;;;;5.72;4.07;;;22.40;18.70;;;;;;5081302;28;20384;-76
2022/06/17 07:32:53;;;;;;;8.35;4.22;;;22.40;17.70;;;;;;5075605;28;20395;-77
2022/06/17 07:35:18;;;;;;;4.37;3.63;;;22.40;17.50;;;;;;5054450;28;20402;-77
2022/06/17 07:40:30;;;;;;;7.37;3.60;;;22.30;17.80;;;;;;5091996;28;20390;-77
2022/06/17 07:42:57;;;;;;;6.55;3.40;;;22.30;17.30;;;;;;5075184;28;20408;-77
2022/06/17 07:45:25;;;;;;;7.70;3.22;;;22.30;16.90;;;;;;5071169;28;20394;-76
2022/06/17 07:47:53;;;;;;;5.05;3.22;;;22.60;16.80;;;;;;5066684;28;20469;-77
2022/06/17 07:50:22;;;;;;;7.22;3.55;;;22.70;16.60;;;;;;5067505;28;20393;-76
2022/06/17 07:52:48;;;;;;;8.65;3.08;;;23.00;16.40;;;;;;5067503;28;20377;-76
2022/06/17 07:55:15;;;;;;;5.93;3.60;;;23.20;15.50;;;;;;5063742;28;20944;-77
2022/06/17 07:57:45;;;;;;;6.78;3.50;;;23.10;14.90;;;;;;5065104;28;20427;-77
2022/06/17 08:00:22;;;;;;;8.65;3.60;;;23.10;15.40;;;;;;5052223;28;20385;-76
2022/06/17 08:02:48;;;;;;;5.75;3.33;;;23.10;14.90;;;;;;5080518;28;20392;-76
2022/06/17 08:05:14;;;;;;;5.30;3.60;;;23.10;15.50;;;;;;5086214;28;20398;-77
2022/06/17 08:07:40;;;;;;;8.20;4.28;;;23.20;14.40;;;;;;5067224;28;20414;-76
2022/06/17 08:10:06;;;;;;;11.80;3.70;;;23.30;14.40;;;;;;5074847;28;20384;-76
2022/06/17 08:12:31;;;;;;;4.33;3.30;;;23.50;13.60;;;;;;5074311;28;20739;-77
2022/06/17 08:14:57;;;;;;;8.70;4.10;;;23.60;13.80;;;;;;5049295;28;20447;-76
2022/06/17 08:17:23;;;;;;;5.50;3.05;;;23.70;14.00;;;;;;5054136;28;20405;-77
2022/06/17 08:19:52;;;;;;;6.40;3.60;;;23.70;13.70;;;;;;5053879;28;20377;-77
2022/06/17 08:22:19;;;;;;;3.58;2.95;;;23.70;13.40;;;;;;5056457;28;20402;-77
2022/06/17 08:24:44;;;;;;;5.55;3.53;;;23.80;12.80;;;;;;5073295;28;20375;-77
2022/06/17 08:27:10;;;;;;;13.68;3.65;;;24.00;12.80;;;;;;5072766;28;20458;-76
2022/06/17 08:29:35;;;;;;;5.13;3.37;;;24.20;12.10;;;;;;5068417;28;20412;-77
2022/06/17 08:34:45;;;;;;;6.03;3.38;;;24.60;11.10;;;;;;5072643;28;20429;-76
2022/06/17 08:37:13;;;;;;;8.85;3.40;;;24.70;10.70;;;;;;5056947;28;20415;-78
2022/06/17 08:39:40;;;;;;;9.13;3.50;;;24.80;10.60;;;;;;5073519;28;20449;-77
2022/06/17 08:42:31;;;;;;;5.72;3.15;;;24.80;9.70;;;;;;5061912;28;20854;-77
2022/06/17 08:45:26;;;;;;;4.40;3.20;;;24.80;10.10;;;;;;5053144;28;20412;-77
2022/06/17 08:48:08;;;;;;;3.42;3.10;;;24.80;9.80;;;;;;5015468;28;20860;-77
2022/06/17 08:51:32;;;;;;;5.50;3.20;;;24.80;9.60;;;;;;5032273;28;20506;-77
2022/06/17 08:54:30;;;;;;;7.22;3.20;;;24.60;10.30;;;;;;4974000;28;20531;-78
2022/06/17 08:57:21;;;;;;;4.55;3.42;;;24.70;10.20;;;;;;4971015;28;20416;-77
2022/06/17 08:59:52;;;;;;;9.35;3.55;;;24.60;9.70;;;;;;5058151;28;20404;-77
2022/06/17 09:02:32;;;;;;;12.27;3.58;;;24.60;10.20;;;;;;5067684;28;20406;-78
2022/06/17 09:05:13;;;;;;;5.32;3.30;;;24.60;10.90;;;;;;5076487;28;20420;-78
2022/06/17 09:08:00;;;;;;;7.63;3.72;;;24.70;10.90;;;;;;5053458;28;20404;-77
2022/06/17 09:10:35;;;;;;;6.47;3.45;;;24.90;10.60;;;;;;5072524;28;20386;-78
2022/06/17 09:13:09;;;;;;;6.78;3.40;;;25.00;9.80;;;;;;5058453;28;20823;-76
2022/06/17 09:15:41;;;;;;;8.07;3.17;;;25.00;10.20;;;;;;5055063;28;20405;-77
2022/06/17 09:18:36;;;;;;;7.13;3.80;;;25.10;9.50;;;;;;5053248;28;20954;-77
2022/06/17 09:21:10;;;;;;;5.25;3.20;;;25.00;9.90;;;;;;5057281;28;20403;-77
2022/06/17 09:23:38;;;;;;;5.65;3.20;;;25.20;9.00;;;;;;5072996;28;20439;-78
2022/06/17 09:26:10;;;;;;;7.80;2.80;;;25.40;9.00;;;;;;5076449;28;20403;-77
2022/06/17 09:28:42;;;;;;;4.75;3.25;;;25.50;8.50;;;;;;5052135;28;20474;-77
2022/06/17 09:31:20;;;;;;;9.70;2.80;;;25.50;8.70;;;;;;5088763;28;20383;-76
2022/06/17 09:34:02;;;;;;;4.20;3.10;;;25.40;8.60;;;;;;5089169;28;20499;-77
2022/06/17 09:36:47;;;;;;;4.43;3.10;;;25.30;9.00;;;;;;5089931;28;20407;-77
2022/06/17 09:39:24;;;;;;;6.05;2.50;;;25.20;9.50;;;;;;5090309;28;20410;-77
2022/06/17 09:42:05;;;;;;;5.57;3.20;;;25.20;9.30;;;;;;5076303;28;20397;-77
2022/06/17 09:44:44;;;;;;;4.30;3.10;;;25.30;8.70;;;;;;5070153;28;20385;-77
2022/06/17 09:47:24;;;;;;;5.80;3.10;;;25.40;8.70;;;;;;5070508;28;20377;-77
2022/06/17 09:49:49;;;;;;;5.00;2.90;;;25.60;7.20;;;;;;5069734;28;20485;-77
2022/06/17 09:52:33;;;;;;;6.80;2.93;;;25.70;7.40;;;;;;5049503;28;20389;-76
2022/06/17 09:55:16;;;;;;;6.30;3.25;;;25.90;7.30;;;;;;5052231;28;20401;-77
2022/06/17 09:57:54;;;;;;;3.50;2.77;;;25.90;6.90;;;;;;5061017;28;20433;-77
2022/06/17 10:00:23;;;;;;;3.03;2.50;;;25.90;6.30;;;;;;5087221;28;20407;-77
2022/06/17 10:03:12;;;;;;;6.03;3.27;;;26.00;6.90;;;;;;5075342;28;20389;-78
2022/06/17 10:05:56;;;;;;;5.05;2.40;;;26.00;6.80;;;;;;5064325;28;20875;-77
2022/06/17 10:09:19;;;;;;;7.40;2.80;;;26.10;6.70;;;;;;5056951;28;20409;-78
2022/06/17 10:12:03;;;;;;;3.78;2.80;;;26.00;6.80;;;;;;5017385;28;20383;-77
2022/06/17 10:15:01;;;;;;;2.58;2.38;;;26.00;8.00;;;;;;5040649;28;20394;-76
2022/06/17 10:20:45;;;;;;;3.33;2.40;;;26.20;4.90;;;;;;5042376;28;20501;-79
2022/06/17 10:23:22;;;;;;;6.85;2.70;;;26.10;4.60;;;;;;5058723;28;20779;-77
2022/06/17 10:26:26;;;;;;;4.68;2.72;;;26.10;5.70;;;;;;5058193;28;20728;-76
2022/06/17 10:28:54;;;;;;;4.45;2.90;;;26.10;5.30;;;;;;4998471;28;20390;-78
2022/06/17 10:31:51;;;;;;;6.55;2.70;;;26.20;5.60;;;;;;5058663;28;20385;-78
2022/06/17 10:34:25;;;;;;;5.40;2.67;;;26.30;5.20;;;;;;5046659;28;20385;-76
2022/06/17 10:36:54;;;;;;;4.63;2.50;;;26.30;5.20;;;;;;5059005;28;20842;-78
2022/06/17 10:39:23;;;;;;;4.13;2.42;;;26.30;5.40;;;;;;5063105;28;20408;-79
2022/06/17 10:41:50;;;;;;;11.65;3.03;;;26.40;5.80;;;;;;5051529;28;20383;-78
2022/06/17 10:44:20;;;;;;;3.53;2.80;;;26.50;5.90;;;;;;5022264;28;20386;-77
2022/06/17 10:46:54;;;;;;;4.55;2.70;;;26.60;5.50;;;;;;5049951;28;20389;-78
2022/06/17 10:49:46;;;;;;;4.40;3.00;;;26.70;4.80;;;;;;5059022;28;20755;-79
2022/06/17 10:52:30;;;;;;;5.43;3.22;;;26.90;5.40;;;;;;5058895;28;20800;-78
2022/06/17 10:54:57;;;;;;;3.55;2.42;;;27.20;4.90;;;;;;5072108;28;20495;-78
2022/06/17 10:57:23;;;;;;;3.90;2.65;;;27.40;3.70;;;;;;5066470;28;20400;-78
2022/06/17 10:59:48;;;;;;;6.15;2.90;;;27.70;3.20;;;;;;5066257;28;20388;-76
2022/06/17 11:02:30;;;;;;;6.70;3.23;;;27.90;3.30;;;;;;5085592;28;20383;-78
2022/06/17 11:05:06;;;;;;;8.50;2.53;;;27.90;3.30;;;;;;5059908;28;20862;-78
2022/06/17 11:07:48;;;;;;;3.25;2.42;;;28.00;3.50;;;;;;5060791;28;20459;-77
2022/06/17 11:10:14;;;;;;;8.07;2.55;;;28.10;4.00;;;;;;5062959;28;20386;-77
2022/06/17 11:12:53;;;;;;;6.77;3.00;;;28.40;2.90;;;;;;5061027;28;20972;-77
2022/06/17 11:15:25;;;;;;;2.55;2.30;;;28.80;2.10;;;;;;5056913;28;20382;-77
2022/06/17 11:17:55;;;;;;;3.30;2.47;;;29.10;1.70;;;;;;5071279;28;20405;-78
2022/06/17 11:20:25;;;;;;;3.75;2.80;;;29.40;1.80;;;;;;5077481;28;20376;-78
2022/06/17 11:22:59;;;;;;;4.03;2.50;;;29.40;1.30;;;;;;5068743;28;20392;-77
2022/06/17 11:25:34;;;;;;;6.20;2.70;;;29.60;1.00;;;;;;5061511;28;20835;-79
2022/06/17 11:28:11;;;;;;;5.90;2.50;;;29.50;1.00;;;;;;5040149;28;20418;-78
2022/06/17 11:30:48;;;;;;;5.60;2.80;;;29.40;1.70;;;;;;5060204;28;21047;-77
2022/06/17 11:33:27;;;;;;;4.88;2.80;;;29.60;1.20;;;;;;5042984;28;20406;-77
2022/06/17 11:35:58;;;;;;;3.40;2.30;;;29.80;1.10;;;;;;5057493;28;20380;-79
2022/06/17 11:38:25;;;;;;;3.63;2.60;;;30.00;1.00;;;;;;5064852;28;20390;-79
2022/06/17 11:40:55;;;;;;;5.78;2.90;;;30.30;1.00;;;;;;5063927;28;20365;-76
2022/06/17 11:43:32;;;;;;;2.60;2.40;;;30.20;1.00;;;;;;5044538;28;20399;-79
2022/06/17 11:46:05;;;;;;;8.57;2.88;;;29.80;1.10;;;;;;5055326;28;20421;-76
2022/06/17 11:48:30;;;;;;;6.40;2.47;;;29.50;1.40;;;;;;5082573;28;20442;-79
2022/06/17 11:51:07;;;;;;;4.13;2.30;;;29.40;1.70;;;;;;5085511;28;20468;-78
2022/06/17 11:53:45;;;;;;;5.05;2.50;;;29.30;1.80;;;;;;5067646;28;20393;-78
2022/06/17 11:56:11;;;;;;;4.43;2.45;;;29.30;2.50;;;;;;5067691;28;20413;-78
2022/06/17 11:58:57;;;;;;;3.10;2.30;;;29.30;1.90;;;;;;5066965;28;20381;-78
2022/06/17 12:01:22;;;;;;;4.83;2.60;;;29.00;2.20;;;;;;5065143;28;20397;-80
2022/06/17 12:03:48;;;;;;;4.78;2.50;;;28.90;1.60;;;;;;5064760;28;20377;-78
2022/06/17 12:06:20;;;;;;;3.43;2.20;;;29.00;2.90;;;;;;5069183;28;20384;-80
2022/06/17 12:09:01;;;;;;;6.90;2.60;;;29.00;1.60;;;;;;5051049;28;20390;-80
2022/06/17 12:11:34;;;;;;;6.18;2.60;;;28.90;1.50;;;;;;5063399;28;20447;-80
2022/06/17 12:14:04;;;;;;;3.45;2.10;;;29.00;2.10;;;;;;5047662;28;20398;-78
2022/06/17 12:16:42;;;;;;;7.22;2.30;;;29.00;1.00;;;;;;5075694;28;20405;-77
2022/06/17 12:19:26;;;;;;;4.88;2.33;;;29.10;1.10;;;;;;5067643;28;20401;-79
2022/06/17 12:22:24;;;;;;;2.47;2.20;;;29.10;1.00;;;;;;5067959;28;20392;-78
2022/06/17 12:24:53;;;;;;;2.85;2.10;;;29.10;1.20;;;;;;5048961;28;20406;-78
2022/06/17 12:27:35;;;;;;;2.95;2.00;;;29.20;1.00;;;;;;5031656;28;20426;-75
2022/06/17 12:30:12;;;;;;;4.20;2.30;;;29.30;1.20;;;;;;5039413;28;20442;-77
2022/06/17 12:32:49;;;;;;;6.05;2.10;;;29.40;1.00;;;;;;5050134;28;20413;-79
2022/06/17 12:35:41;;;;;;;6.35;1.98;;;29.40;1.00;;;;;;5049638;28;20668;-77
2022/06/17 12:38:44;;;;;;;5.45;2.08;;;29.60;1.00;;;;;;5047120;28;20402;-79
2022/06/17 12:41:19;;;;;;;3.25;1.65;;;29.80;1.00;;;;;;5046013;28;20390;-81
2022/06/17 12:43:54;;;;;;;3.45;2.00;;;29.70;1.00;;;;;;5055248;28;20471;-78
2022/06/17 12:46:36;;;;;;;5.07;1.70;;;29.40;1.00;;;;;;5053754;28;20386;-78
2022/06/17 12:55:46;;;;;;;1.92;1.73;;;29.60;1.00;;;;;;5063633;28;20418;-78
2022/06/17 12:58:28;;;;;;;2.80;1.70;;;29.80;1.00;;;;;;5027826;28;20417;-77
2022/06/17 13:01:02;;;;;;;4.80;1.98;;;30.00;1.00;;;;;;5071627;28;20388;-77
2022/06/17 13:03:36;;;;;;;3.65;2.28;;;30.20;1.00;;;;;;5050584;28;20416;-78
2022/06/17 13:06:38;;;;;;;5.43;2.10;;;30.40;1.00;;;;;;5067211;28;20412;-78
2022/06/17 13:09:41;;;;;;;5.55;2.03;;;30.50;1.00;;;;;;5068325;28;20405;-79
2022/06/17 13:12:39;;;;;;;3.40;2.07;;;30.60;1.00;;;;;;5070049;28;20413;-77
2022/06/17 13:15:17;;;;;;;2.40;1.80;;;30.90;1.00;;;;;;5074774;28;20388;-80
2022/06/17 13:18:04;;;;;;;3.60;1.85;;;31.00;1.00;;;;;;5067293;28;20407;-79
2022/06/17 13:20:43;;;;;;;2.80;1.90;;;31.60;1.00;;;;;;5070684;28;20456;-79
2022/06/17 13:23:37;;;;;;;7.03;2.10;;;32.30;1.00;;;;;;5072168;28;20449;-77
2022/06/17 13:26:13;;;;;;;2.80;2.13;;;32.80;1.00;;;;;;5050765;28;20886;-78
2022/06/17 13:29:02;;;;;;;5.20;1.70;;;33.60;1.00;;;;;;5051598;28;20531;-78
2022/06/17 13:31:37;;;;;;;5.70;2.00;;;33.90;1.00;;;;;;5073754;28;20381;-77
2022/06/17 13:34:10;;;;;;;4.97;2.22;;;34.40;1.00;;;;;;5074274;28;20438;-78
2022/06/17 13:37:04;;;;;;;2.58;1.90;;;34.50;1.00;;;;;;5055966;28;20401;-76
2022/06/17 13:39:33;;;;;;;3.30;1.50;;;34.60;1.00;;;;;;5057725;28;20373;-77
2022/06/17 13:42:06;;;;;;;3.95;1.92;;;34.40;1.00;;;;;;5051912;28;20518;-77